sensor_id;sensor_type;location;lat;lon;timestamp;pressure;altitude;pressure_sealevel;temperature;humidity
84617;BME280;74846;51.126;16.944;2024-03-23T00:56:14;99573.67;;;10.32;75.18
84617;BME280;74846;51.126;16.944;2024-03-23T00:58:42;99565.31;;;10.31;75.57
84617;BME280;74846;51.126;16.944;2024-03-23T01:01:09;99563.67;;;10.26;75.72
84617;BME280;74846;51.126;16.944;2024-03-23T01:03:37;99563.67;;;10.24;75.84
84617;BME280;74846;51.126;16.944;2024-03-23T01:06:05;99557.13;;;10.27;75.88
84617;BME280;74846;51.126;16.944;2024-03-23T01:08:33;99553.55;;;10.25;75.73
84617;BME280;74846;51.126;16.944;2024-03-23T01:11:25;99549.33;;;10.28;75.71
84617;BME280;74846;51.126;16.944;2024-03-23T01:13:56;99547.15;;;10.27;75.80
84617;BME280;74846;51.126;16.944;2024-03-23T01:16:24;99543.23;;;10.30;75.69
84617;BME280;74846;51.126;16.944;2024-03-23T01:18:52;99542.48;;;10.33;75.67
84617;BME280;74846;51.126;16.944;2024-03-23T01:21:19;99536.13;;;10.31;75.52
84617;BME280;74846;51.126;16.944;2024-03-23T01:23:47;99525.73;;;10.26;75.54
84617;BME280;74846;51.126;16.944;2024-03-23T01:26:15;99516.67;;;10.23;75.40
84617;BME280;74846;51.126;16.944;2024-03-23T01:28:42;99512.40;;;10.26;75.42
84617;BME280;74846;51.126;16.944;2024-03-23T01:31:10;99505.17;;;10.32;75.09
84617;BME280;74846;51.126;16.944;2024-03-23T01:33:39;99491.86;;;10.28;75.29
84617;BME280;74846;51.126;16.944;2024-03-23T01:36:06;99491.06;;;10.30;75.12
84617;BME280;74846;51.126;16.944;2024-03-23T01:38:34;99486.59;;;10.26;75.09
84617;BME280;74846;51.126;16.944;2024-03-23T01:41:01;99480.94;;;10.26;74.97
84617;BME280;74846;51.126;16.944;2024-03-23T01:43:29;99475.45;;;10.27;74.85
84617;BME280;74846;51.126;16.944;2024-03-23T01:45:58;99471.83;;;10.28;74.79
84617;BME280;74846;51.126;16.944;2024-03-23T01:48:26;99469.85;;;10.29;74.47
84617;BME280;74846;51.126;16.944;2024-03-23T01:50:54;99469.98;;;10.25;74.57
84617;BME280;74846;51.126;16.944;2024-03-23T01:53:22;99464.98;;;10.23;74.70
84617;BME280;74846;51.126;16.944;2024-03-23T01:55:50;99460.08;;;10.20;74.75
84617;BME280;74846;51.126;16.944;2024-03-23T01:58:19;99459.95;;;10.17;74.76
84617;BME280;74846;51.126;16.944;2024-03-23T02:00:46;99458.95;;;10.17;74.85
84617;BME280;74846;51.126;16.944;2024-03-23T02:03:23;99462.88;;;10.21;74.66
84617;BME280;74846;51.126;16.944;2024-03-23T02:05:53;99453.74;;;10.18;74.61
84617;BME280;74846;51.126;16.944;2024-03-23T02:08:22;99451.18;;;10.22;74.60
84617;BME280;74846;51.126;16.944;2024-03-23T02:10:50;99456.35;;;10.19;74.63
84617;BME280;74846;51.126;16.944;2024-03-23T02:13:18;99446.30;;;10.17;74.60
84617;BME280;74846;51.126;16.944;2024-03-23T02:15:46;99446.36;;;10.18;74.66
84617;BME280;74846;51.126;16.944;2024-03-23T02:18:15;99438.83;;;10.18;74.66
84617;BME280;74846;51.126;16.944;2024-03-23T02:20:43;99436.23;;;10.15;74.60
84617;BME280;74846;51.126;16.944;2024-03-23T02:23:14;99424.64;;;10.17;74.42
84617;BME280;74846;51.126;16.944;2024-03-23T02:25:42;99415.95;;;10.18;74.45
84617;BME280;74846;51.126;16.944;2024-03-23T02:28:10;99410.22;;;10.20;74.29
84617;BME280;74846;51.126;16.944;2024-03-23T02:30:38;99412.67;;;10.17;74.40
84617;BME280;74846;51.126;16.944;2024-03-23T02:33:06;99413.45;;;10.12;74.52
84617;BME280;74846;51.126;16.944;2024-03-23T02:35:34;99413.70;;;10.15;74.52
84617;BME280;74846;51.126;16.944;2024-03-23T02:38:01;99412.25;;;10.16;74.39
84617;BME280;74846;51.126;16.944;2024-03-23T02:40:29;99408.52;;;10.14;74.39
84617;BME280;74846;51.126;16.944;2024-03-23T02:42:57;99402.42;;;10.11;74.47
84617;BME280;74846;51.126;16.944;2024-03-23T02:45:25;99404.23;;;10.10;74.50
84617;BME280;74846;51.126;16.944;2024-03-23T02:47:52;99400.44;;;10.17;74.29
84617;BME280;74846;51.126;16.944;2024-03-23T02:50:21;99398.70;;;10.14;74.25
84617;BME280;74846;51.126;16.944;2024-03-23T02:52:49;99393.80;;;10.13;74.20
84617;BME280;74846;51.126;16.944;2024-03-23T02:55:16;99394.50;;;10.14;74.19
84617;BME280;74846;51.126;16.944;2024-03-23T02:57:44;99390.86;;;10.13;74.17
84617;BME280;74846;51.126;16.944;2024-03-23T03:00:12;99385.40;;;10.15;74.24
84617;BME280;74846;51.126;16.944;2024-03-23T03:02:40;99380.10;;;10.16;74.10
84617;BME280;74846;51.126;16.944;2024-03-23T03:05:08;99382.12;;;10.15;74.13
84617;BME280;74846;51.126;16.944;2024-03-23T03:07:36;99381.15;;;10.14;74.02
84617;BME280;74846;51.126;16.944;2024-03-23T03:10:06;99384.16;;;10.11;74.18
84617;BME280;74846;51.126;16.944;2024-03-23T03:12:36;99373.82;;;10.13;74.06
84617;BME280;74846;51.126;16.944;2024-03-23T03:15:04;99370.11;;;10.10;74.17
84617;BME280;74846;51.126;16.944;2024-03-23T03:17:32;99362.77;;;10.07;74.10
84617;BME280;74846;51.126;16.944;2024-03-23T03:19:59;99360.66;;;10.07;74.04
84617;BME280;74846;51.126;16.944;2024-03-23T03:22:27;99354.88;;;10.07;74.24
84617;BME280;74846;51.126;16.944;2024-03-23T03:24:55;99359.27;;;10.07;74.44
84617;BME280;74846;51.126;16.944;2024-03-23T03:27:22;99351.04;;;10.10;74.23
84617;BME280;74846;51.126;16.944;2024-03-23T03:29:50;99346.91;;;10.08;74.18
84617;BME280;74846;51.126;16.944;2024-03-23T03:32:18;99345.45;;;10.09;74.32
84617;BME280;74846;51.126;16.944;2024-03-23T03:34:45;99341.52;;;10.12;74.06
84617;BME280;74846;51.126;16.944;2024-03-23T03:37:13;99337.30;;;10.07;74.15
84617;BME280;74846;51.126;16.944;2024-03-23T03:39:40;99335.46;;;10.11;74.08
84617;BME280;74846;51.126;16.944;2024-03-23T03:42:08;99334.26;;;10.08;74.18
84617;BME280;74846;51.126;16.944;2024-03-23T03:44:36;99338.23;;;10.09;74.08
84617;BME280;74846;51.126;16.944;2024-03-23T03:47:04;99329.21;;;10.05;74.21
84617;BME280;74846;51.126;16.944;2024-03-23T03:49:32;99325.85;;;9.98;74.32
84617;BME280;74846;51.126;16.944;2024-03-23T03:52:00;99327.20;;;9.99;74.37
84617;BME280;74846;51.126;16.944;2024-03-23T03:54:29;99321.66;;;10.00;74.21
84617;BME280;74846;51.126;16.944;2024-03-23T03:56:57;99317.27;;;10.00;74.54
84617;BME280;74846;51.126;16.944;2024-03-23T03:59:24;99320.27;;;10.04;74.17
84617;BME280;74846;51.126;16.944;2024-03-23T04:01:52;99325.48;;;10.06;74.00
84617;BME280;74846;51.126;16.944;2024-03-23T04:04:20;99322.39;;;10.10;73.90
84617;BME280;74846;51.126;16.944;2024-03-23T04:06:48;99318.65;;;10.08;74.03
84617;BME280;74846;51.126;16.944;2024-03-23T04:09:15;99318.45;;;9.98;74.49
84617;BME280;74846;51.126;16.944;2024-03-23T04:11:43;99316.32;;;9.91;74.69
84617;BME280;74846;51.126;16.944;2024-03-23T04:14:11;99321.21;;;9.94;74.41
84617;BME280;74846;51.126;16.944;2024-03-23T04:16:39;99327.04;;;9.96;74.62
84617;BME280;74846;51.126;16.944;2024-03-23T04:19:06;99321.90;;;9.99;74.59
84617;BME280;74846;51.126;16.944;2024-03-23T04:21:37;99319.24;;;10.02;74.05
84617;BME280;74846;51.126;16.944;2024-03-23T04:24:05;99321.78;;;9.91;74.27
84617;BME280;74846;51.126;16.944;2024-03-23T04:26:43;99321.16;;;9.87;73.98
84617;BME280;74846;51.126;16.944;2024-03-23T04:29:11;99317.40;;;9.83;74.56
84617;BME280;74846;51.126;16.944;2024-03-23T04:31:39;99316.11;;;9.79;74.80
84617;BME280;74846;51.126;16.944;2024-03-23T04:34:07;99315.53;;;9.82;74.52
84617;BME280;74846;51.126;16.944;2024-03-23T04:36:35;99318.68;;;9.82;74.29
84617;BME280;74846;51.126;16.944;2024-03-23T04:39:02;99309.77;;;9.79;74.56
84617;BME280;74846;51.126;16.944;2024-03-23T04:41:30;99312.73;;;9.75;74.89
84617;BME280;74846;51.126;16.944;2024-03-23T04:43:58;99311.25;;;9.73;74.82
84617;BME280;74846;51.126;16.944;2024-03-23T04:46:26;99305.52;;;9.67;75.25
84617;BME280;74846;51.126;16.944;2024-03-23T04:48:54;99306.67;;;9.63;75.26
84617;BME280;74846;51.126;16.944;2024-03-23T04:51:23;99302.98;;;9.58;75.18
84617;BME280;74846;51.126;16.944;2024-03-23T04:53:51;99303.13;;;9.58;74.98
84617;BME280;74846;51.126;16.944;2024-03-23T04:56:19;99294.14;;;9.59;75.05
84617;BME280;74846;51.126;16.944;2024-03-23T04:58:47;99292.46;;;9.60;74.81
84617;BME280;74846;51.126;16.944;2024-03-23T05:01:14;99290.80;;;9.59;74.79
84617;BME280;74846;51.126;16.944;2024-03-23T05:03:44;99286.81;;;9.56;74.90
84617;BME280;74846;51.126;16.944;2024-03-23T05:06:12;99287.30;;;9.56;75.12
84617;BME280;74846;51.126;16.944;2024-03-23T05:08:40;99285.54;;;9.59;75.13
84617;BME280;74846;51.126;16.944;2024-03-23T05:11:07;99289.52;;;9.62;74.85
84617;BME280;74846;51.126;16.944;2024-03-23T05:13:38;99289.34;;;9.62;74.83
84617;BME280;74846;51.126;16.944;2024-03-23T05:16:06;99284.81;;;9.60;74.86
84617;BME280;74846;51.126;16.944;2024-03-23T05:18:34;99283.98;;;9.59;74.36
84617;BME280;74846;51.126;16.944;2024-03-23T05:21:02;99282.52;;;9.54;74.29
84617;BME280;74846;51.126;16.944;2024-03-23T05:23:29;99279.83;;;9.53;74.40
84617;BME280;74846;51.126;16.944;2024-03-23T05:25:57;99267.69;;;9.53;74.37
84617;BME280;74846;51.126;16.944;2024-03-23T05:28:25;99265.17;;;9.54;74.66
84617;BME280;74846;51.126;16.944;2024-03-23T05:30:55;99269.09;;;9.46;74.92
84617;BME280;74846;51.126;16.944;2024-03-23T05:33:24;99269.23;;;9.49;74.81
84617;BME280;74846;51.126;16.944;2024-03-23T05:36:00;99263.92;;;9.52;75.04
84617;BME280;74846;51.126;16.944;2024-03-23T05:38:28;99261.11;;;9.55;74.90
84617;BME280;74846;51.126;16.944;2024-03-23T05:40:57;99257.33;;;9.58;74.40
84617;BME280;74846;51.126;16.944;2024-03-23T05:43:25;99256.48;;;9.58;74.47
84617;BME280;74846;51.126;16.944;2024-03-23T05:46:00;99256.96;;;9.61;74.83
84617;BME280;74846;51.126;16.944;2024-03-23T05:48:29;99259.48;;;9.67;74.61
84617;BME280;74846;51.126;16.944;2024-03-23T05:50:58;99256.05;;;9.71;74.70
84617;BME280;74846;51.126;16.944;2024-03-23T05:53:25;99257.66;;;9.76;74.84
84617;BME280;74846;51.126;16.944;2024-03-23T05:56:01;99249.53;;;9.82;74.61
84617;BME280;74846;51.126;16.944;2024-03-23T05:58:31;99239.85;;;9.89;74.27
84617;BME280;74846;51.126;16.944;2024-03-23T06:01:00;99227.81;;;9.96;74.15
84617;BME280;74846;51.126;16.944;2024-03-23T06:03:29;99233.42;;;10.03;74.32
84617;BME280;74846;51.126;16.944;2024-03-23T06:05:57;99232.48;;;10.14;74.03
84617;BME280;74846;51.126;16.944;2024-03-23T06:08:25;99234.79;;;10.21;74.10
84617;BME280;74846;51.126;16.944;2024-03-23T06:10:52;99237.31;;;10.30;74.22
84617;BME280;74846;51.126;16.944;2024-03-23T06:13:20;99241.40;;;10.41;74.03
84617;BME280;74846;51.126;16.944;2024-03-23T06:15:52;99246.79;;;10.51;73.82
84617;BME280;74846;51.126;16.944;2024-03-23T06:18:19;99255.05;;;10.63;73.69
84617;BME280;74846;51.126;16.944;2024-03-23T06:20:47;99265.48;;;10.60;73.62
84617;BME280;74846;51.126;16.944;2024-03-23T06:23:17;99269.22;;;10.54;74.03
84617;BME280;74846;51.126;16.944;2024-03-23T06:25:47;99265.59;;;10.51;74.35
84617;BME280;74846;51.126;16.944;2024-03-23T06:28:15;99255.38;;;10.59;73.78
84617;BME280;74846;51.126;16.944;2024-03-23T06:30:42;99242.05;;;10.61;73.67
84617;BME280;74846;51.126;16.944;2024-03-23T06:33:10;99239.79;;;10.70;73.39
84617;BME280;74846;51.126;16.944;2024-03-23T06:35:38;99234.86;;;10.72;73.29
84617;BME280;74846;51.126;16.944;2024-03-23T06:38:05;99214.69;;;10.69;73.19
84617;BME280;74846;51.126;16.944;2024-03-23T06:40:36;99200.48;;;10.76;72.98
84617;BME280;74846;51.126;16.944;2024-03-23T06:43:03;99198.23;;;10.73;72.88
84617;BME280;74846;51.126;16.944;2024-03-23T06:45:31;99193.08;;;10.69;72.88
84617;BME280;74846;51.126;16.944;2024-03-23T06:47:59;99196.86;;;10.65;72.94
84617;BME280;74846;51.126;16.944;2024-03-23T06:50:26;99191.92;;;10.68;72.71
84617;BME280;74846;51.126;16.944;2024-03-23T06:52:55;99197.23;;;10.72;72.31
84617;BME280;74846;51.126;16.944;2024-03-23T06:55:23;99197.15;;;10.78;71.97
84617;BME280;74846;51.126;16.944;2024-03-23T06:57:52;99193.74;;;10.86;71.68
84617;BME280;74846;51.126;16.944;2024-03-23T07:00:20;99190.29;;;10.89;71.66
84617;BME280;74846;51.126;16.944;2024-03-23T07:02:47;99179.38;;;10.99;71.86
84617;BME280;74846;51.126;16.944;2024-03-23T07:05:15;99174.83;;;11.14;71.32
84617;BME280;74846;51.126;16.944;2024-03-23T07:07:43;99167.52;;;11.29;70.44
84617;BME280;74846;51.126;16.944;2024-03-23T07:10:10;99151.67;;;11.35;70.41
84617;BME280;74846;51.126;16.944;2024-03-23T07:12:38;99146.23;;;11.53;69.42
84617;BME280;74846;51.126;16.944;2024-03-23T07:15:06;99139.75;;;11.69;69.10
84617;BME280;74846;51.126;16.944;2024-03-23T07:17:35;99136.55;;;11.82;68.55
84617;BME280;74846;51.126;16.944;2024-03-23T07:20:03;99124.51;;;11.91;68.15
84617;BME280;74846;51.126;16.944;2024-03-23T07:22:31;99117.36;;;12.03;67.78
84617;BME280;74846;51.126;16.944;2024-03-23T07:25:00;99119.05;;;12.21;66.64
84617;BME280;74846;51.126;16.944;2024-03-23T07:27:29;99114.05;;;12.33;66.08
84617;BME280;74846;51.126;16.944;2024-03-23T07:29:56;99112.98;;;12.47;66.00
84617;BME280;74846;51.126;16.944;2024-03-23T07:32:24;99110.27;;;12.63;64.51
84617;BME280;74846;51.126;16.944;2024-03-23T07:34:54;99103.02;;;12.73;63.41
84617;BME280;74846;51.126;16.944;2024-03-23T07:37:21;99099.39;;;12.84;63.21
84617;BME280;74846;51.126;16.944;2024-03-23T07:39:51;99094.70;;;13.02;62.12
84617;BME280;74846;51.126;16.944;2024-03-23T07:42:19;99090.83;;;13.06;62.69
84617;BME280;74846;51.126;16.944;2024-03-23T07:44:47;99081.73;;;13.26;62.32
84617;BME280;74846;51.126;16.944;2024-03-23T07:47:14;99078.54;;;13.50;61.83
84617;BME280;74846;51.126;16.944;2024-03-23T07:49:42;99071.77;;;13.78;61.05
84617;BME280;74846;51.126;16.944;2024-03-23T07:52:10;99058.40;;;14.02;59.98
84617;BME280;74846;51.126;16.944;2024-03-23T07:54:38;99048.95;;;14.22;59.55
84617;BME280;74846;51.126;16.944;2024-03-23T07:57:05;99043.95;;;14.40;59.27
84617;BME280;74846;51.126;16.944;2024-03-23T07:59:33;99042.27;;;14.52;58.23
84617;BME280;74846;51.126;16.944;2024-03-23T08:02:01;99039.10;;;14.52;59.25
84617;BME280;74846;51.126;16.944;2024-03-23T08:04:29;99041.06;;;14.63;59.21
84617;BME280;74846;51.126;16.944;2024-03-23T08:06:57;99039.81;;;14.78;58.74
84617;BME280;74846;51.126;16.944;2024-03-23T08:09:24;99039.90;;;14.81;58.67
84617;BME280;74846;51.126;16.944;2024-03-23T08:11:52;99033.79;;;14.92;58.29
84617;BME280;74846;51.126;16.944;2024-03-23T08:14:20;99031.39;;;14.95;57.92
84617;BME280;74846;51.126;16.944;2024-03-23T08:16:48;99027.31;;;15.00;57.77
84617;BME280;74846;51.126;16.944;2024-03-23T08:19:16;99019.45;;;15.10;56.58
84617;BME280;74846;51.126;16.944;2024-03-23T08:21:43;99014.23;;;15.20;56.60
84617;BME280;74846;51.126;16.944;2024-03-23T08:24:13;99003.66;;;15.41;55.83
84617;BME280;74846;51.126;16.944;2024-03-23T08:26:41;98995.61;;;15.56;56.28
84617;BME280;74846;51.126;16.944;2024-03-23T08:29:08;98984.88;;;15.95;55.31
84617;BME280;74846;51.126;16.944;2024-03-23T08:31:36;98975.13;;;16.17;53.92
84617;BME280;74846;51.126;16.944;2024-03-23T08:34:03;98967.27;;;16.31;53.41
84617;BME280;74846;51.126;16.944;2024-03-23T08:36:31;98964.56;;;16.48;52.50
84617;BME280;74846;51.126;16.944;2024-03-23T08:38:59;98957.80;;;16.44;52.53
84617;BME280;74846;51.126;16.944;2024-03-23T08:41:30;98950.83;;;16.41;52.38
84617;BME280;74846;51.126;16.944;2024-03-23T08:43:58;98943.33;;;16.38;51.78
84617;BME280;74846;51.126;16.944;2024-03-23T08:46:25;98937.35;;;16.26;52.37
84617;BME280;74846;51.126;16.944;2024-03-23T08:48:53;98927.29;;;16.15;51.97
84617;BME280;74846;51.126;16.944;2024-03-23T08:51:21;98931.42;;;15.99;52.05
84617;BME280;74846;51.126;16.944;2024-03-23T08:53:48;98925.69;;;15.89;52.46
84617;BME280;74846;51.126;16.944;2024-03-23T08:56:16;98931.77;;;15.82;52.34
84617;BME280;74846;51.126;16.944;2024-03-23T08:58:44;98930.09;;;15.79;52.43
84617;BME280;74846;51.126;16.944;2024-03-23T09:01:13;98928.84;;;15.77;52.62
84617;BME280;74846;51.126;16.944;2024-03-23T09:03:41;98910.43;;;15.74;52.81
84617;BME280;74846;51.126;16.944;2024-03-23T09:06:11;98901.27;;;15.71;52.39
84617;BME280;74846;51.126;16.944;2024-03-23T09:08:39;98889.38;;;15.52;52.61
84617;BME280;74846;51.126;16.944;2024-03-23T09:11:11;98883.20;;;15.35;53.62
84617;BME280;74846;51.126;16.944;2024-03-23T09:13:39;98881.46;;;15.30;53.80
84617;BME280;74846;51.126;16.944;2024-03-23T09:16:09;98874.42;;;15.15;53.67
84617;BME280;74846;51.126;16.944;2024-03-23T09:18:39;98870.55;;;15.01;53.88
84617;BME280;74846;51.126;16.944;2024-03-23T09:21:14;98873.45;;;14.90;54.72
84617;BME280;74846;51.126;16.944;2024-03-23T09:23:45;98871.08;;;14.83;55.25
84617;BME280;74846;51.126;16.944;2024-03-23T09:26:13;98863.52;;;14.81;55.68
84617;BME280;74846;51.126;16.944;2024-03-23T09:28:41;98857.23;;;14.70;56.15
84617;BME280;74846;51.126;16.944;2024-03-23T09:31:09;98846.83;;;14.69;56.37
84617;BME280;74846;51.126;16.944;2024-03-23T09:33:41;98849.31;;;14.74;56.13
84617;BME280;74846;51.126;16.944;2024-03-23T09:36:10;98841.05;;;14.66;56.32
84617;BME280;74846;51.126;16.944;2024-03-23T09:38:37;98829.02;;;14.59;56.54
84617;BME280;74846;51.126;16.944;2024-03-23T09:41:08;98821.18;;;14.61;56.54
84617;BME280;74846;51.126;16.944;2024-03-23T09:43:37;98813.56;;;14.69;56.39
84617;BME280;74846;51.126;16.944;2024-03-23T09:46:06;98806.69;;;14.85;56.19
84617;BME280;74846;51.126;16.944;2024-03-23T09:48:35;98806.89;;;15.11;55.41
84617;BME280;74846;51.126;16.944;2024-03-23T09:51:03;98807.39;;;15.29;55.33
84617;BME280;74846;51.126;16.944;2024-03-23T09:53:31;98801.66;;;15.54;54.48
84617;BME280;74846;51.126;16.944;2024-03-23T09:56:00;98795.92;;;15.70;53.69
84617;BME280;74846;51.126;16.944;2024-03-23T09:58:28;98786.02;;;15.91;52.99
84617;BME280;74846;51.126;16.944;2024-03-23T10:00:55;98778.43;;;16.00;52.86
84617;BME280;74846;51.126;16.944;2024-03-23T10:03:23;98769.38;;;16.29;52.05
84617;BME280;74846;51.126;16.944;2024-03-23T10:06:04;98768.40;;;16.50;52.02
84617;BME280;74846;51.126;16.944;2024-03-23T10:08:33;98765.48;;;16.56;51.16
84617;BME280;74846;51.126;16.944;2024-03-23T10:11:13;98765.65;;;16.55;51.14
84617;BME280;74846;51.126;16.944;2024-03-23T10:13:43;98760.52;;;16.71;51.11
84617;BME280;74846;51.126;16.944;2024-03-23T10:16:11;98757.22;;;17.00;50.73
84617;BME280;74846;51.126;16.944;2024-03-23T10:18:39;98751.98;;;17.15;49.97
84617;BME280;74846;51.126;16.944;2024-03-23T10:21:11;98749.86;;;17.16;49.50
84617;BME280;74846;51.126;16.944;2024-03-23T10:23:40;98752.88;;;17.31;49.72
84617;BME280;74846;51.126;16.944;2024-03-23T10:26:24;98745.65;;;17.84;49.02
84617;BME280;74846;51.126;16.944;2024-03-23T10:28:55;98743.48;;;18.34;48.65
84617;BME280;74846;51.126;16.944;2024-03-23T10:31:35;98743.96;;;18.65;49.29
84617;BME280;74846;51.126;16.944;2024-03-23T10:34:04;98742.27;;;19.15;46.72
84617;BME280;74846;51.126;16.944;2024-03-23T10:36:32;98735.90;;;19.37;45.81
84617;BME280;74846;51.126;16.944;2024-03-23T10:39:01;98727.53;;;19.46;45.33
84617;BME280;74846;51.126;16.944;2024-03-23T10:41:32;98723.30;;;19.59;45.47
84617;BME280;74846;51.126;16.944;2024-03-23T10:44:02;98724.61;;;19.82;44.72
84617;BME280;74846;51.126;16.944;2024-03-23T10:46:30;98726.94;;;20.13;42.72
84617;BME280;74846;51.126;16.944;2024-03-23T10:48:58;98721.59;;;20.04;42.84
84617;BME280;74846;51.126;16.944;2024-03-23T10:51:26;98722.70;;;19.79;43.72
84617;BME280;74846;51.126;16.944;2024-03-23T10:53:55;98710.78;;;19.70;44.47
84617;BME280;74846;51.126;16.944;2024-03-23T10:56:24;98710.60;;;19.68;43.97
84617;BME280;74846;51.126;16.944;2024-03-23T10:58:57;98699.52;;;19.39;45.13
84617;BME280;74846;51.126;16.944;2024-03-23T11:01:25;98691.88;;;19.37;44.03
84617;BME280;74846;51.126;16.944;2024-03-23T11:03:52;98679.93;;;19.22;44.19
84617;BME280;74846;51.126;16.944;2024-03-23T11:06:34;98670.51;;;19.13;44.16
84617;BME280;74846;51.126;16.944;2024-03-23T11:09:03;98669.73;;;18.91;45.30
84617;BME280;74846;51.126;16.944;2024-03-23T11:11:31;98670.86;;;18.97;45.07
84617;BME280;74846;51.126;16.944;2024-03-23T11:14:13;98671.31;;;18.93;45.14
84617;BME280;74846;51.126;16.944;2024-03-23T11:17:08;98672.17;;;18.84;45.24
84617;BME280;74846;51.126;16.944;2024-03-23T11:19:37;98665.00;;;18.75;46.01
84617;BME280;74846;51.126;16.944;2024-03-23T11:22:05;98655.52;;;18.94;45.50
84617;BME280;74846;51.126;16.944;2024-03-23T11:24:33;98654.42;;;19.03;44.64
84617;BME280;74846;51.126;16.944;2024-03-23T11:27:01;98649.08;;;19.00;44.79
84617;BME280;74846;51.126;16.944;2024-03-23T11:29:31;98643.73;;;19.02;44.86
84617;BME280;74846;51.126;16.944;2024-03-23T11:31:59;98639.19;;;19.13;44.16
84617;BME280;74846;51.126;16.944;2024-03-23T11:34:29;98636.08;;;19.26;43.78
84617;BME280;74846;51.126;16.944;2024-03-23T11:37:04;98627.59;;;19.37;43.10
84617;BME280;74846;51.126;16.944;2024-03-23T11:39:32;98614.25;;;19.30;42.23
84617;BME280;74846;51.126;16.944;2024-03-23T11:42:00;98620.64;;;19.13;42.11
84617;BME280;74846;51.126;16.944;2024-03-23T11:44:27;98617.30;;;18.85;42.57
84617;BME280;74846;51.126;16.944;2024-03-23T11:47:07;98606.50;;;18.71;42.32
84617;BME280;74846;51.126;16.944;2024-03-23T11:49:36;98603.91;;;18.51;42.53
84617;BME280;74846;51.126;16.944;2024-03-23T11:52:08;98600.76;;;18.38;43.13
84617;BME280;74846;51.126;16.944;2024-03-23T11:54:38;98600.40;;;18.27;42.97
84617;BME280;74846;51.126;16.944;2024-03-23T11:57:08;98605.21;;;18.17;43.33
84617;BME280;74846;51.126;16.944;2024-03-23T11:59:40;98617.35;;;18.17;43.37
84617;BME280;74846;51.126;16.944;2024-03-23T12:02:13;98629.61;;;18.16;43.33
84617;BME280;74846;51.126;16.944;2024-03-23T12:04:43;98636.88;;;18.03;43.72
84617;BME280;74846;51.126;16.944;2024-03-23T12:07:16;98646.64;;;17.88;44.00
84617;BME280;74846;51.126;16.944;2024-03-23T12:10:03;98643.53;;;17.62;44.61
84617;BME280;74846;51.126;16.944;2024-03-23T12:12:31;98643.49;;;17.56;45.37
84617;BME280;74846;51.126;16.944;2024-03-23T12:17:32;98651.11;;;17.42;45.92
84617;BME280;74846;51.126;16.944;2024-03-23T12:20:01;98658.98;;;17.38;45.70
84617;BME280;74846;51.126;16.944;2024-03-23T12:22:29;98656.98;;;17.33;45.67
84617;BME280;74846;51.126;16.944;2024-03-23T12:24:57;98659.39;;;17.35;45.64
84617;BME280;74846;51.126;16.944;2024-03-23T12:27:24;98661.54;;;17.32;45.69
84617;BME280;74846;51.126;16.944;2024-03-23T12:29:52;98662.84;;;17.31;45.35
84617;BME280;74846;51.126;16.944;2024-03-23T12:32:20;98663.28;;;17.29;44.87
84617;BME280;74846;51.126;16.944;2024-03-23T12:34:47;98650.15;;;17.25;44.89
84617;BME280;74846;51.126;16.944;2024-03-23T12:37:15;98650.52;;;17.17;45.31
84617;BME280;74846;51.126;16.944;2024-03-23T12:39:47;98649.20;;;17.03;45.79
84617;BME280;74846;51.126;16.944;2024-03-23T12:42:14;98646.34;;;17.05;46.39
84617;BME280;74846;51.126;16.944;2024-03-23T12:44:42;98656.13;;;17.05;46.25
84617;BME280;74846;51.126;16.944;2024-03-23T12:47:10;98667.11;;;17.02;45.55
84617;BME280;74846;51.126;16.944;2024-03-23T12:49:38;98663.92;;;16.89;45.32
84617;BME280;74846;51.126;16.944;2024-03-23T12:52:06;98673.48;;;16.81;44.69
84617;BME280;74846;51.126;16.944;2024-03-23T12:54:35;98667.87;;;16.64;44.69
84617;BME280;74846;51.126;16.944;2024-03-23T12:57:03;98682.90;;;16.63;45.09
84617;BME280;74846;51.126;16.944;2024-03-23T12:59:30;98690.89;;;16.58;45.49
84617;BME280;74846;51.126;16.944;2024-03-23T13:01:59;98702.45;;;16.53;46.22
84617;BME280;74846;51.126;16.944;2024-03-23T13:04:27;98743.16;;;16.36;48.09
84617;BME280;74846;51.126;16.944;2024-03-23T13:06:54;98757.84;;;15.82;49.11
84617;BME280;74846;51.126;16.944;2024-03-23T13:09:22;98769.36;;;15.14;49.77
84617;BME280;74846;51.126;16.944;2024-03-23T13:14:21;98772.89;;;14.23;52.03
84617;BME280;74846;51.126;16.944;2024-03-23T13:16:49;98790.85;;;13.91;53.43
84617;BME280;74846;51.126;16.944;2024-03-23T13:19:18;98785.86;;;13.67;55.86
84617;BME280;74846;51.126;16.944;2024-03-23T13:21:47;98790.55;;;13.36;57.65
84617;BME280;74846;51.126;16.944;2024-03-23T13:24:15;98799.45;;;13.12;58.48
84617;BME280;74846;51.126;16.944;2024-03-23T13:26:43;98805.96;;;12.77;59.62
84617;BME280;74846;51.126;16.944;2024-03-23T13:29:10;98811.23;;;12.70;60.35
84617;BME280;74846;51.126;16.944;2024-03-23T13:31:38;98828.76;;;12.51;60.57
84617;BME280;74846;51.126;16.944;2024-03-23T13:34:06;98835.55;;;12.48;60.80
84617;BME280;74846;51.126;16.944;2024-03-23T13:36:34;98852.59;;;12.55;60.65
84617;BME280;74846;51.126;16.944;2024-03-23T13:39:03;98858.58;;;12.69;59.65
84617;BME280;74846;51.126;16.944;2024-03-23T13:41:38;98848.52;;;12.84;58.47
84617;BME280;74846;51.126;16.944;2024-03-23T13:44:07;98852.48;;;12.95;57.90
84617;BME280;74846;51.126;16.944;2024-03-23T13:46:36;98861.81;;;12.84;57.48
84617;BME280;74846;51.126;16.944;2024-03-23T13:49:05;98884.63;;;12.64;58.01
84617;BME280;74846;51.126;16.944;2024-03-23T13:51:33;98901.65;;;12.46;58.73
84617;BME280;74846;51.126;16.944;2024-03-23T13:54:01;98933.09;;;12.13;58.83
84617;BME280;74846;51.126;16.944;2024-03-23T13:56:29;98944.83;;;11.83;59.58
84617;BME280;74846;51.126;16.944;2024-03-23T13:58:56;98963.31;;;11.58;60.15
84617;BME280;74846;51.126;16.944;2024-03-23T14:01:25;98975.64;;;11.23;61.22